createdAt,value
2018-08-30T00:00:28.681Z,7.43
2018-08-30T00:02:56.961Z,7.33
2018-08-30T00:05:25.328Z,6.40
2018-08-30T00:07:53.638Z,6.73
2018-08-30T00:10:21.937Z,7.30
2018-08-30T00:12:50.213Z,7.00
2018-08-30T00:15:18.545Z,6.30
2018-08-30T00:17:46.875Z,6.27
2018-08-30T00:20:15.351Z,6.57
2018-08-30T00:22:43.641Z,6.37
2018-08-30T00:25:11.973Z,6.40
2018-08-30T00:27:40.317Z,6.63
2018-08-30T00:30:08.573Z,6.67
2018-08-30T00:32:36.984Z,6.10
2018-08-30T00:35:05.572Z,6.10
2018-08-30T00:37:33.904Z,6.30
2018-08-30T00:40:02.207Z,5.37
2018-08-30T00:42:30.601Z,5.50
2018-08-30T00:44:59.236Z,6.27
2018-08-30T00:47:27.537Z,6.47
2018-08-30T00:49:55.802Z,5.83
2018-08-30T00:52:24.149Z,5.90
2018-08-30T00:54:52.516Z,5.30
2018-08-30T00:57:20.841Z,5.43
2018-08-30T00:59:49.240Z,5.77
2018-08-30T01:02:17.848Z,5.90
2018-08-30T01:04:46.232Z,5.50
2018-08-30T01:07:14.566Z,5.40
2018-08-30T01:09:42.840Z,5.17
2018-08-30T01:12:11.085Z,5.30
2018-08-30T01:14:39.387Z,5.23
2018-08-30T01:17:07.677Z,5.70
2018-08-30T01:19:36.009Z,5.60
2018-08-30T01:22:04.388Z,5.37
2018-08-30T01:24:32.709Z,5.40
2018-08-30T01:27:01.040Z,5.43
2018-08-30T01:29:29.381Z,5.40
2018-08-30T01:31:57.709Z,5.47
2018-08-30T01:34:26.073Z,5.30
2018-08-30T01:36:54.391Z,4.67
2018-08-30T01:39:22.772Z,4.87
2018-08-30T01:41:51.067Z,5.13
2018-08-30T01:44:19.416Z,4.77
2018-08-30T01:46:47.780Z,5.80
2018-08-30T01:49:16.076Z,5.70
2018-08-30T01:51:44.365Z,5.33
2018-08-30T01:54:12.744Z,5.73
2018-08-30T01:56:41.110Z,5.47
2018-08-30T01:59:09.385Z,5.47
2018-08-30T02:01:37.645Z,5.97
2018-08-30T02:04:05.915Z,5.03
2018-08-30T02:06:34.240Z,5.37
2018-08-30T02:09:02.622Z,5.33
2018-08-30T02:11:30.985Z,4.47
2018-08-30T02:13:59.331Z,5.37
2018-08-30T02:16:27.633Z,4.57
2018-08-30T02:18:55.997Z,5.03
2018-08-30T02:21:24.453Z,4.93
2018-08-30T02:23:52.836Z,5.50
2018-08-30T02:26:21.176Z,4.93
2018-08-30T02:28:49.481Z,5.00
2018-08-30T02:31:17.829Z,4.73
2018-08-30T02:33:46.220Z,4.63
2018-08-30T02:36:14.672Z,4.70
2018-08-30T02:38:42.904Z,5.30
2018-08-30T02:41:11.221Z,5.70
2018-08-30T02:43:39.501Z,5.50
2018-08-30T02:46:07.881Z,5.40
2018-08-30T02:48:36.191Z,5.07
2018-08-30T02:51:04.655Z,5.30
2018-08-30T02:53:32.949Z,5.27
2018-08-30T02:56:01.241Z,4.97
2018-08-30T02:58:29.545Z,5.30
2018-08-30T03:00:57.861Z,5.37
2018-08-30T03:03:26.177Z,5.40
2018-08-30T03:05:54.597Z,5.10
2018-08-30T03:08:22.906Z,5.50
2018-08-30T03:10:51.257Z,5.07
2018-08-30T03:13:19.582Z,5.10
2018-08-30T03:15:47.942Z,4.93
2018-08-30T03:18:16.270Z,5.37
2018-08-30T03:20:44.737Z,5.50
2018-08-30T03:23:13.044Z,5.23
2018-08-30T03:25:41.388Z,5.73
2018-08-30T03:28:09.718Z,5.13
2018-08-30T03:30:38.042Z,5.60
2018-08-30T03:33:06.359Z,5.10
2018-08-30T03:35:34.613Z,5.10
2018-08-30T03:38:02.963Z,5.30
2018-08-30T03:40:31.294Z,4.77
2018-08-30T03:42:59.678Z,5.03
2018-08-30T03:45:27.939Z,6.10
2018-08-30T03:47:56.253Z,5.50
2018-08-30T03:50:24.575Z,5.17
2018-08-30T03:52:52.783Z,5.73
2018-08-30T03:55:21.257Z,5.80
2018-08-30T03:57:49.416Z,5.37
2018-08-30T04:00:17.717Z,5.50
2018-08-30T04:02:45.962Z,5.90
2018-08-30T04:05:14.233Z,5.70
2018-08-30T04:07:42.565Z,5.50
2018-08-30T04:10:10.870Z,5.33
2018-08-30T04:12:39.188Z,5.87
2018-08-30T04:15:07.553Z,5.50
2018-08-30T04:17:35.849Z,5.27
2018-08-30T04:20:04.192Z,6.27
2018-08-30T04:22:32.463Z,6.37
2018-08-30T04:25:00.765Z,5.60
2018-08-30T04:27:29.056Z,6.77
2018-08-30T04:29:57.300Z,5.93
2018-08-30T04:32:25.708Z,6.37
2018-08-30T04:34:54.108Z,6.10
2018-08-30T04:37:22.469Z,6.30
2018-08-30T04:39:50.744Z,6.13
2018-08-30T04:42:19.103Z,6.20
2018-08-30T04:44:47.324Z,6.73
2018-08-30T04:47:15.677Z,5.73
2018-08-30T04:49:44.013Z,6.00
2018-08-30T04:52:12.497Z,6.63
2018-08-30T04:54:40.904Z,6.37
2018-08-30T04:57:09.256Z,6.13
2018-08-30T04:59:37.556Z,7.17
2018-08-30T05:02:05.806Z,6.73
2018-08-30T05:04:34.185Z,6.63
2018-08-30T05:07:02.577Z,6.90
2018-08-30T05:09:30.933Z,6.33
2018-08-30T05:11:59.324Z,6.43
2018-08-30T05:14:27.692Z,6.80
2018-08-30T05:16:56.050Z,7.10
2018-08-30T05:19:24.409Z,6.97
2018-08-30T05:21:52.836Z,6.77
2018-08-30T05:24:21.205Z,7.47
2018-08-30T05:26:49.515Z,6.67
2018-08-30T05:29:17.901Z,8.20
2018-08-30T05:31:46.249Z,6.87
2018-08-30T05:34:14.621Z,6.83
2018-08-30T05:36:42.901Z,7.40
2018-08-30T05:39:11.179Z,7.60
2018-08-30T05:41:39.512Z,7.60
2018-08-30T05:44:07.837Z,7.20
2018-08-30T05:46:36.176Z,7.13
2018-08-30T05:49:04.518Z,7.63
2018-08-30T05:51:32.835Z,6.77
2018-08-30T05:54:01.178Z,7.30
2018-08-30T05:56:29.500Z,6.93
2018-08-30T05:58:57.844Z,7.37
2018-08-30T06:01:26.260Z,7.50
2018-08-30T06:03:54.531Z,6.50
2018-08-30T06:06:22.908Z,6.70
2018-08-30T06:08:51.218Z,7.63
2018-08-30T06:11:19.572Z,7.50
2018-08-30T06:13:47.851Z,7.20
2018-08-30T06:16:16.256Z,8.23
2018-08-30T06:18:44.580Z,7.00
2018-08-30T06:21:12.893Z,7.10
2018-08-30T06:23:41.349Z,6.60
2018-08-30T06:26:09.625Z,7.77
2018-08-30T06:28:37.984Z,6.83
2018-08-30T06:31:06.237Z,7.40
2018-08-30T06:33:34.591Z,6.67
2018-08-30T06:36:02.832Z,7.60
2018-08-30T06:38:31.207Z,7.17
2018-08-30T06:40:59.436Z,7.37
2018-08-30T06:43:27.802Z,7.40
2018-08-30T06:45:56.057Z,6.80
2018-08-30T06:48:24.389Z,7.97
2018-08-30T06:50:52.711Z,7.47
2018-08-30T06:53:21.044Z,7.00
2018-08-30T06:55:49.340Z,7.10
2018-08-30T06:58:17.814Z,7.27
2018-08-30T07:00:46.100Z,6.87
2018-08-30T07:03:14.405Z,5.97
2018-08-30T07:05:42.724Z,6.60
2018-08-30T07:08:11.149Z,7.17
2018-08-30T07:10:39.409Z,7.07
2018-08-30T07:13:07.648Z,6.63
2018-08-30T07:15:35.943Z,6.27
2018-08-30T07:18:04.201Z,5.97
2018-08-30T07:20:32.460Z,6.47
2018-08-30T07:23:00.870Z,6.73
2018-08-30T07:25:29.134Z,6.20
2018-08-30T07:27:57.404Z,6.00
2018-08-30T07:30:25.698Z,5.73
2018-08-30T07:32:53.990Z,6.13
2018-08-30T07:35:22.313Z,6.63
2018-08-30T07:37:50.640Z,6.30
2018-08-30T07:40:18.984Z,6.00
2018-08-30T07:42:47.309Z,6.30
2018-08-30T07:45:15.610Z,6.50
2018-08-30T07:47:43.975Z,6.10
2018-08-30T07:50:12.344Z,6.37
2018-08-30T07:52:40.702Z,5.70
2018-08-30T07:55:08.997Z,5.53
2018-08-30T07:57:37.245Z,6.50
2018-08-30T08:00:05.963Z,5.50
2018-08-30T08:02:34.423Z,6.50
2018-08-30T08:05:02.766Z,5.50
2018-08-30T08:07:31.133Z,5.80
2018-08-30T08:09:59.935Z,5.50
2018-08-30T08:12:28.284Z,6.27
2018-08-30T08:14:56.914Z,5.53
2018-08-30T08:17:25.283Z,5.50
2018-08-30T08:19:53.589Z,5.43
2018-08-30T08:22:21.981Z,5.67
2018-08-30T08:24:50.457Z,5.90
2018-08-30T08:27:18.740Z,5.40
2018-08-30T08:29:47.116Z,5.70
2018-08-30T08:32:15.565Z,5.70
2018-08-30T08:34:43.951Z,5.50
2018-08-30T08:37:12.238Z,5.87
2018-08-30T08:39:40.592Z,5.47
2018-08-30T08:42:08.908Z,5.40
2018-08-30T08:44:37.221Z,5.50
2018-08-30T08:47:05.541Z,5.17
2018-08-30T08:49:33.925Z,5.80
2018-08-30T08:52:02.293Z,5.47
2018-08-30T08:54:30.625Z,6.37
2018-08-30T08:56:59.034Z,5.93
2018-08-30T08:59:27.392Z,6.37
2018-08-30T09:01:55.742Z,6.50
2018-08-30T09:04:24.090Z,6.07
2018-08-30T09:06:52.431Z,5.93
2018-08-30T09:09:20.792Z,6.50
2018-08-30T09:11:49.159Z,6.47
2018-08-30T09:14:17.588Z,6.57
2018-08-30T09:16:45.966Z,6.60
2018-08-30T09:19:14.321Z,6.90
2018-08-30T09:21:42.769Z,6.43
2018-08-30T09:24:11.122Z,6.17
2018-08-30T09:26:39.421Z,6.43
2018-08-30T09:29:07.768Z,5.47
2018-08-30T09:31:36.064Z,6.50
2018-08-30T09:34:04.417Z,6.07
2018-08-30T09:36:32.693Z,5.83
2018-08-30T09:39:01.089Z,6.40
2018-08-30T09:41:29.475Z,6.00
2018-08-30T09:43:57.805Z,6.50
2018-08-30T09:46:26.097Z,5.97
2018-08-30T09:48:54.437Z,7.00
2018-08-30T09:51:22.704Z,5.93
2018-08-30T09:53:51.112Z,6.50
2018-08-30T09:59:10.225Z,6.00
2018-08-30T10:04:29.085Z,6.30
2018-08-30T10:06:57.850Z,5.73
2018-08-30T10:09:26.300Z,6.30
2018-08-30T10:11:54.596Z,5.30
2018-08-30T10:14:22.981Z,5.70
2018-08-30T10:16:51.312Z,6.67
2018-08-30T10:19:19.661Z,5.63
2018-08-30T10:21:48.001Z,5.63
2018-08-30T10:24:16.332Z,5.83
2018-08-30T10:26:44.746Z,5.90
2018-08-30T10:29:13.005Z,5.57
2018-08-30T10:31:41.450Z,5.23
2018-08-30T10:34:09.776Z,5.83
2018-08-30T10:36:38.089Z,5.67
2018-08-30T10:39:07.633Z,5.80
2018-08-30T10:41:35.988Z,5.60
2018-08-30T10:44:04.288Z,5.40
2018-08-30T10:46:32.660Z,4.73
2018-08-30T10:49:00.972Z,5.07
2018-08-30T10:51:29.275Z,5.80
2018-08-30T10:53:57.617Z,5.87
2018-08-30T10:56:25.982Z,4.53
2018-08-30T10:58:54.313Z,5.10
2018-08-30T11:01:22.671Z,5.00
2018-08-30T11:03:51.005Z,5.10
2018-08-30T11:06:19.315Z,5.00
2018-08-30T11:08:47.647Z,4.97
2018-08-30T11:11:16.002Z,5.23
2018-08-30T11:13:44.382Z,4.93
2018-08-30T11:16:12.725Z,4.80
2018-08-30T11:18:41.084Z,4.37
2018-08-30T11:21:09.413Z,4.53
2018-08-30T11:23:37.891Z,4.23
2018-08-30T11:26:06.221Z,4.77
2018-08-30T11:28:34.650Z,4.50
2018-08-30T11:31:02.972Z,4.50
2018-08-30T11:33:31.350Z,4.40
2018-08-30T11:35:59.689Z,4.60
2018-08-30T11:38:28.043Z,4.10
2018-08-30T11:40:56.368Z,4.20
2018-08-30T11:43:24.725Z,4.50
2018-08-30T11:45:52.989Z,4.13
2018-08-30T11:48:21.362Z,3.73
2018-08-30T11:50:49.695Z,4.40
2018-08-30T11:53:18.045Z,3.97
2018-08-30T11:55:46.327Z,4.17
2018-08-30T11:58:14.581Z,4.03
2018-08-30T12:00:42.976Z,3.83
2018-08-30T12:03:11.290Z,3.70
2018-08-30T12:05:39.662Z,3.47
2018-08-30T12:08:08.097Z,3.47
2018-08-30T12:10:36.434Z,3.23
2018-08-30T12:13:04.756Z,3.43
2018-08-30T12:15:33.045Z,3.43
2018-08-30T12:18:01.515Z,3.50
2018-08-30T12:20:29.901Z,3.60
2018-08-30T12:22:58.272Z,3.00
2018-08-30T12:25:26.647Z,2.80
2018-08-30T12:27:55.043Z,3.10
2018-08-30T12:30:23.384Z,3.00
2018-08-30T12:32:51.788Z,3.07
2018-08-30T12:35:20.280Z,2.50
2018-08-30T12:37:48.675Z,3.10
2018-08-30T12:40:16.955Z,3.30
2018-08-30T12:42:45.427Z,3.07
2018-08-30T12:45:13.650Z,2.47
2018-08-30T12:47:41.969Z,2.63
2018-08-30T12:50:10.489Z,2.60
2018-08-30T12:52:38.813Z,2.70
2018-08-30T12:55:07.229Z,2.63
2018-08-30T12:57:35.680Z,2.67
2018-08-30T13:00:04.081Z,2.37
2018-08-30T13:02:32.437Z,2.33
2018-08-30T13:05:00.914Z,2.40
2018-08-30T13:07:29.217Z,2.67
2018-08-30T13:09:57.544Z,2.70
2018-08-30T13:12:26.182Z,1.90
2018-08-30T13:14:54.299Z,2.23
2018-08-30T13:17:22.634Z,2.20
2018-08-30T13:19:51.061Z,2.20
2018-08-30T13:22:19.515Z,2.07
2018-08-30T13:24:47.789Z,1.83
2018-08-30T13:27:16.059Z,1.80
2018-08-30T13:29:44.499Z,2.30
2018-08-30T13:32:12.911Z,1.80
2018-08-30T13:34:41.299Z,1.90
2018-08-30T13:37:09.729Z,1.90
2018-08-30T13:39:38.082Z,1.70
2018-08-30T13:42:06.134Z,1.73
2018-08-30T13:44:35.034Z,1.70
2018-08-30T13:47:03.236Z,1.80
2018-08-30T13:49:31.444Z,2.00
2018-08-30T13:51:59.772Z,2.00
2018-08-30T13:54:28.274Z,1.90
2018-08-30T13:56:56.740Z,1.90
2018-08-30T13:59:24.924Z,2.17
2018-08-30T14:01:53.286Z,2.37
2018-08-30T14:04:21.577Z,2.20
2018-08-30T14:06:50.034Z,2.10
2018-08-30T14:09:18.429Z,1.50
2018-08-30T14:11:46.710Z,2.10
2018-08-30T14:14:15.143Z,2.13
2018-08-30T14:16:43.130Z,1.83
2018-08-30T14:19:11.633Z,1.67
2018-08-30T14:21:39.787Z,1.83
2018-08-30T14:24:08.140Z,2.00
2018-08-30T14:26:36.728Z,1.93
2018-08-30T14:29:07.912Z,2.00
2018-08-30T14:31:36.309Z,1.67
2018-08-30T14:34:04.668Z,2.00
2018-08-30T14:36:33.000Z,1.70
2018-08-30T14:39:01.370Z,1.70
2018-08-30T14:41:29.856Z,1.40
2018-08-30T14:43:58.068Z,1.60
2018-08-30T14:46:26.333Z,1.67
2018-08-30T14:48:54.664Z,1.60
2018-08-30T14:51:23.122Z,1.60
2018-08-30T14:53:52.177Z,1.50
2018-08-30T14:56:19.632Z,1.70
2018-08-30T14:58:47.987Z,1.40
2018-08-30T15:01:16.348Z,1.67
2018-08-30T15:03:44.635Z,1.57
2018-08-30T15:06:12.939Z,2.00
2018-08-30T15:08:41.232Z,1.60
2018-08-30T15:11:09.619Z,1.67
2018-08-30T15:13:38.005Z,1.53
2018-08-30T15:16:06.878Z,1.73
2018-08-30T15:18:35.189Z,2.00
2018-08-30T15:21:03.679Z,2.30
2018-08-30T15:23:32.151Z,2.50
2018-08-30T15:26:00.466Z,2.00
2018-08-30T15:28:28.806Z,2.27
2018-08-30T15:30:57.522Z,1.97
2018-08-30T15:33:25.780Z,2.30
2018-08-30T15:35:54.623Z,1.93
2018-08-30T15:38:22.996Z,1.70
2018-08-30T15:40:51.340Z,2.30
2018-08-30T15:43:20.045Z,1.73
2018-08-30T15:45:48.401Z,2.00
2018-08-30T15:48:16.818Z,2.67
2018-08-30T15:50:45.101Z,1.80
2018-08-30T15:53:13.511Z,1.67
2018-08-30T15:55:41.852Z,1.73
2018-08-30T15:58:10.162Z,1.47
2018-08-30T16:00:38.535Z,3.07
2018-08-30T16:03:06.997Z,2.27
2018-08-30T16:05:35.625Z,1.70
2018-08-30T16:08:03.952Z,1.70
2018-08-30T16:10:32.440Z,1.60
2018-08-30T16:13:00.808Z,1.57
2018-08-30T16:15:29.084Z,1.93
2018-08-30T16:17:57.567Z,1.77
2018-08-30T16:20:25.904Z,1.60
2018-08-30T16:23:02.742Z,2.07
2018-08-30T16:25:31.005Z,1.50
2018-08-30T16:27:59.391Z,1.53
2018-08-30T16:30:28.197Z,1.77
2018-08-30T16:32:56.529Z,1.40
2018-08-30T16:35:24.919Z,1.37
2018-08-30T16:37:53.241Z,2.00
2018-08-30T16:40:21.513Z,1.43
2018-08-30T16:42:49.872Z,1.90
2018-08-30T16:45:18.240Z,2.23
2018-08-30T16:47:46.550Z,1.80
2018-08-30T16:50:14.930Z,2.60
2018-08-30T16:52:43.402Z,2.27
2018-08-30T16:55:11.762Z,2.67
2018-08-30T16:57:40.139Z,2.63
2018-08-30T17:00:08.405Z,1.67
2018-08-30T17:02:36.716Z,1.60
2018-08-30T17:05:05.089Z,1.87
2018-08-30T17:07:33.532Z,1.53
2018-08-30T17:10:02.091Z,2.00
2018-08-30T17:12:30.286Z,1.70
2018-08-30T17:14:58.640Z,2.17
2018-08-30T17:17:27.748Z,2.03
2018-08-30T17:19:56.133Z,1.77
2018-08-30T17:22:24.641Z,2.20
2018-08-30T17:24:52.965Z,2.00
2018-08-30T17:27:21.594Z,3.37
2018-08-30T17:29:50.164Z,2.47
2018-08-30T17:32:18.629Z,2.70
2018-08-30T17:34:46.966Z,2.07
2018-08-30T17:37:15.462Z,1.60
2018-08-30T17:39:43.859Z,2.20
2018-08-30T17:42:12.248Z,1.47
2018-08-30T17:44:40.545Z,1.63
2018-08-30T17:47:08.921Z,1.83
2018-08-30T17:49:37.456Z,1.93
2018-08-30T17:52:06.092Z,1.50
2018-08-30T17:54:34.462Z,40.30
2018-08-30T17:57:02.809Z,17.40
2018-08-30T17:59:31.194Z,4.80
2018-08-30T18:01:59.579Z,14.13
2018-08-30T18:04:27.940Z,19.30
2018-08-30T18:06:56.346Z,2.80
2018-08-30T18:09:24.640Z,1.90
2018-08-30T18:11:53.015Z,1.40
2018-08-30T18:14:21.292Z,2.00
2018-08-30T18:16:50.076Z,1.80
2018-08-30T18:19:18.453Z,1.97
2018-08-30T18:21:46.870Z,2.60
2018-08-30T18:24:15.498Z,3.87
2018-08-30T18:26:43.861Z,1.73
2018-08-30T18:29:12.273Z,2.70
2018-08-30T18:31:40.678Z,1.73
2018-08-30T18:34:09.118Z,2.07
2018-08-30T18:36:37.605Z,2.60
2018-08-30T18:39:08.358Z,2.17
2018-08-30T18:41:36.825Z,2.60
2018-08-30T18:44:05.428Z,14.93
2018-08-30T18:46:33.865Z,4.27
2018-08-30T18:49:02.262Z,2.20
2018-08-30T18:51:30.820Z,2.53
2018-08-30T18:53:59.480Z,2.00
2018-08-30T18:56:27.944Z,2.10
2018-08-30T18:58:57.130Z,1.83
2018-08-30T19:01:25.444Z,2.40
2018-08-30T19:03:53.948Z,2.13
2018-08-30T19:06:22.473Z,2.50
2018-08-30T19:08:50.880Z,2.00
2018-08-30T19:11:19.288Z,2.80
2018-08-30T19:13:47.693Z,2.63
2018-08-30T19:16:21.376Z,2.00
2018-08-30T19:18:55.514Z,2.10
2018-08-30T19:21:23.865Z,2.10
2018-08-30T19:23:52.782Z,2.63
2018-08-30T19:26:21.113Z,2.83
2018-08-30T19:28:49.406Z,2.03
2018-08-30T19:31:17.755Z,1.63
2018-08-30T19:33:46.144Z,1.87
2018-08-30T19:36:19.993Z,2.10
2018-08-30T19:38:48.439Z,2.30
2018-08-30T19:41:20.112Z,1.90
2018-08-30T19:43:50.640Z,1.90
2018-08-30T19:46:19.357Z,1.87
2018-08-30T19:48:47.793Z,2.23
2018-08-30T19:51:16.128Z,1.60
2018-08-30T19:53:44.572Z,1.87
2018-08-30T19:56:13.737Z,2.03
2018-08-30T19:58:42.353Z,1.67
2018-08-30T20:01:10.693Z,1.83
2018-08-30T20:03:39.038Z,1.73
2018-08-30T20:06:07.808Z,2.00
2018-08-30T20:08:36.153Z,1.60
2018-08-30T20:11:04.652Z,1.80
2018-08-30T20:13:33.040Z,1.60
2018-08-30T20:16:01.396Z,2.20
2018-08-30T20:18:29.704Z,1.60
2018-08-30T20:20:58.050Z,1.20
2018-08-30T20:23:26.429Z,1.43
2018-08-30T20:25:54.722Z,1.53
2018-08-30T20:28:22.998Z,1.70
2018-08-30T20:30:51.237Z,1.77
2018-08-30T20:33:19.590Z,1.60
2018-08-30T20:35:47.856Z,2.00
2018-08-30T20:38:16.162Z,1.73
2018-08-30T20:40:44.493Z,1.57
2018-08-30T20:43:12.780Z,1.40
2018-08-30T20:45:41.096Z,1.80
2018-08-30T20:48:09.446Z,1.67
2018-08-30T20:50:37.777Z,1.93
2018-08-30T20:53:06.116Z,1.83
2018-08-30T20:55:35.256Z,2.07
2018-08-30T20:58:03.616Z,1.80
2018-08-30T21:00:31.960Z,1.53
2018-08-30T21:03:00.322Z,1.60
2018-08-30T21:05:28.716Z,2.20
2018-08-30T21:07:57.073Z,2.00
2018-08-30T21:10:25.479Z,1.60
2018-08-30T21:12:53.905Z,1.63
2018-08-30T21:15:22.212Z,2.30
2018-08-30T21:17:50.529Z,1.70
2018-08-30T21:20:18.878Z,1.70
2018-08-30T21:22:47.285Z,2.27
2018-08-30T21:25:15.579Z,2.10
2018-08-30T21:27:44.134Z,1.50
2018-08-30T21:30:12.401Z,1.70
2018-08-30T21:32:40.820Z,2.20
2018-08-30T21:35:09.241Z,1.77
2018-08-30T21:37:37.647Z,1.80
2018-08-30T21:40:06.058Z,1.70
2018-08-30T21:42:34.425Z,2.17
2018-08-30T21:45:02.801Z,2.30
2018-08-30T21:47:31.261Z,2.13
2018-08-30T21:49:59.647Z,1.97
2018-08-30T21:52:28.108Z,2.07
2018-08-30T21:54:56.503Z,2.20
2018-08-30T21:57:24.786Z,2.13
2018-08-30T21:59:53.128Z,2.10
2018-08-30T22:02:21.677Z,1.97
2018-08-30T22:04:50.497Z,2.20
2018-08-30T22:07:18.952Z,1.73
2018-08-30T22:09:47.359Z,2.13
2018-08-30T22:12:15.857Z,2.60
2018-08-30T22:14:44.176Z,2.13
2018-08-30T22:17:12.441Z,1.93
2018-08-30T22:19:40.821Z,2.10
2018-08-30T22:22:09.252Z,2.50
2018-08-30T22:24:37.593Z,2.30
2018-08-30T22:27:05.860Z,2.10
2018-08-30T22:29:34.138Z,2.50
2018-08-30T22:32:02.419Z,1.53
2018-08-30T22:34:30.720Z,2.10
2018-08-30T22:36:59.180Z,2.10
2018-08-30T22:39:27.624Z,2.07
2018-08-30T22:41:55.882Z,2.23
2018-08-30T22:44:24.202Z,2.10
2018-08-30T22:46:52.516Z,1.90
2018-08-30T22:49:20.940Z,2.60
2018-08-30T22:51:49.302Z,2.40
2018-08-30T22:54:17.691Z,2.30
2018-08-30T22:56:46.060Z,2.50
2018-08-30T22:59:14.385Z,2.50
2018-08-30T23:01:42.652Z,2.63
2018-08-30T23:04:10.897Z,2.40
2018-08-30T23:06:39.242Z,2.43
2018-08-30T23:09:09.586Z,1.93
2018-08-30T23:11:37.884Z,1.90
2018-08-30T23:14:06.245Z,2.47
2018-08-30T23:16:34.542Z,1.87
2018-08-30T23:19:03.165Z,1.97
2018-08-30T23:21:31.632Z,1.87
2018-08-30T23:23:59.967Z,1.93
2018-08-30T23:26:28.281Z,1.90
2018-08-30T23:28:56.617Z,1.73
2018-08-30T23:31:24.905Z,1.93
2018-08-30T23:33:53.308Z,1.90
2018-08-30T23:36:21.692Z,1.83
2018-08-30T23:38:50.146Z,1.53
2018-08-30T23:41:18.513Z,1.63
2018-08-30T23:43:46.925Z,1.37
2018-08-30T23:46:15.341Z,1.70
2018-08-30T23:48:43.736Z,1.30
2018-08-30T23:51:12.129Z,1.70
2018-08-30T23:53:40.466Z,1.70
2018-08-30T23:56:08.800Z,1.30
2018-08-30T23:58:48.370Z,1.23
